Time,TemperatureF,DewpointF,PressureIn,WindDirection,WindDirectionDegrees,WindSpeedMPH,WindSpeedGustMPH,Humidity,HourlyPrecipIn,Conditions,Clouds,dailyrainin,SoftwareType,DateUTC
2013-01-19 00:04:00,19.0,17.0,30.47,NW,316,0.0,26.0,92,0.00,,,0.00,,2013-01-19 05:04:00,
2013-01-19 00:13:00,19.0,17.0,30.47,NW,316,0.0,26.0,92,0.00,,,0.00,,2013-01-19 05:13:00,
2013-01-19 00:23:00,21.0,18.0,30.47,NW,316,0.0,26.0,87,0.00,,,0.00,,2013-01-19 05:23:00,
2013-01-19 00:33:00,21.0,18.0,30.47,NW,316,0.0,26.0,87,0.00,,,0.00,,2013-01-19 05:33:00,
2013-01-19 00:43:00,21.0,18.0,30.47,NW,316,0.0,26.0,87,0.00,,,0.00,,2013-01-19 05:43:00,
2013-01-19 00:52:00,25.0,22.0,30.44,SSW,210,0.0,5.0,90,0.00,,,0.00,,2013-01-19 05:52:00,
2013-01-19 01:03:00,25.0,22.0,30.44,SSW,210,0.0,5.0,90,0.00,,,0.00,,2013-01-19 06:03:00,
2013-01-19 01:12:00,25.0,22.0,30.44,SSW,210,0.0,5.0,90,0.00,,,0.00,,2013-01-19 06:12:00,
2013-01-19 01:22:00,25.0,22.0,30.44,SSW,210,0.0,5.0,90,0.00,,,0.00,,2013-01-19 06:22:00,
2013-01-19 01:53:00,29.0,24.0,30.43,SW,230,2.0,11.0,80,0.00,,,0.00,,2013-01-19 06:53:00,
2013-01-19 02:02:00,29.0,24.0,30.43,SW,230,2.0,11.0,80,0.00,,,0.00,,2013-01-19 07:02:00,
2013-01-19 02:12:00,29.0,24.0,30.43,SW,230,2.0,11.0,80,0.00,,,0.00,,2013-01-19 07:12:00,
2013-01-19 02:22:00,30.0,25.0,30.42,SW,226,0.0,12.0,83,0.00,,,0.00,,2013-01-19 07:22:00,
2013-01-19 02:33:00,30.0,25.0,30.42,SW,226,0.0,12.0,83,0.00,,,0.00,,2013-01-19 07:33:00,
2013-01-19 02:43:00,30.0,25.0,30.42,SW,226,0.0,12.0,83,0.00,,,0.00,,2013-01-19 07:43:00,
2013-01-19 02:52:00,31.0,26.0,30.41,WSW,246,6.0,15.0,83,0.00,,,0.00,,2013-01-19 07:52:00,
2013-01-19 03:02:00,31.0,26.0,30.41,WSW,246,6.0,15.0,83,0.00,,,0.00,,2013-01-19 08:02:00,
2013-01-19 03:12:00,31.0,26.0,30.41,WSW,246,6.0,15.0,83,0.00,,,0.00,,2013-01-19 08:12:00,
2013-01-19 03:22:00,31.0,28.0,30.39,SW,219,1.0,15.0,87,0.00,,,0.00,,2013-01-19 08:22:00,
2013-01-19 03:33:00,31.0,28.0,30.39,SW,219,1.0,15.0,87,0.00,,,0.00,,2013-01-19 08:33:00,
2013-01-19 03:43:00,31.0,28.0,30.39,SW,219,1.0,15.0,87,0.00,,,0.00,,2013-01-19 08:43:00,
2013-01-19 03:52:00,32.0,30.0,30.38,SW,229,5.0,15.0,92,0.00,,,0.00,,2013-01-19 08:52:00,
2013-01-19 04:02:00,32.0,30.0,30.38,SW,229,5.0,15.0,92,0.00,,,0.00,,2013-01-19 09:02:00,
2013-01-19 04:12:00,32.0,30.0,30.38,SW,229,5.0,15.0,92,0.00,,,0.00,,2013-01-19 09:12:00,
2013-01-19 04:23:00,33.0,31.0,30.37,SSW,210,4.0,19.0,93,0.00,,,0.00,,2013-01-19 09:23:00,
2013-01-19 04:33:00,33.0,31.0,30.37,SSW,210,4.0,19.0,93,0.00,,,0.00,,2013-01-19 09:33:00,
2013-01-19 04:43:00,33.0,31.0,30.37,SSW,210,4.0,19.0,93,0.00,,,0.00,,2013-01-19 09:43:00,
2013-01-19 04:52:00,34.0,32.0,30.36,WSW,249,4.0,19.0,94,0.00,,,0.00,,2013-01-19 09:52:00,
2013-01-19 05:02:00,34.0,32.0,30.36,WSW,249,4.0,19.0,94,0.00,,,0.00,,2013-01-19 10:02:00,
2013-01-19 05:12:00,34.0,32.0,30.36,WSW,249,4.0,19.0,94,0.00,,,0.00,,2013-01-19 10:12:00,
2013-01-19 05:22:00,35.0,33.0,30.34,WSW,253,5.0,19.0,93,0.00,,,0.00,,2013-01-19 10:22:00,
2013-01-19 05:33:00,35.0,33.0,30.34,WSW,253,5.0,19.0,93,0.00,,,0.00,,2013-01-19 10:33:00,
2013-01-19 05:43:00,35.0,33.0,30.34,WSW,253,5.0,19.0,93,0.00,,,0.00,,2013-01-19 10:43:00,
2013-01-19 05:52:00,35.0,33.0,30.34,West,265,1.0,19.0,91,0.00,,,0.00,,2013-01-19 10:52:00,
2013-01-19 06:03:00,35.0,33.0,30.34,West,265,1.0,19.0,91,0.00,,,0.00,,2013-01-19 11:03:00,
2013-01-19 06:12:00,35.0,33.0,30.34,West,265,1.0,19.0,91,0.00,,,0.00,,2013-01-19 11:12:00,
2013-01-19 06:28:00,36.0,34.0,30.32,SW,226,4.0,24.0,91,0.00,,,0.00,,2013-01-19 11:28:00,
2013-01-19 07:48:00,37.0,35.0,30.30,SSW,210,3.0,24.0,93,0.00,,,0.00,,2013-01-19 12:48:00,
2013-01-19 07:53:00,37.0,35.0,30.30,SW,223,5.0,24.0,94,0.00,,,0.00,,2013-01-19 12:53:00,
2013-01-19 08:03:00,37.0,35.0,30.30,SW,223,5.0,24.0,94,0.00,,,0.00,,2013-01-19 13:03:00,
2013-01-19 08:13:00,37.0,35.0,30.30,SW,223,5.0,24.0,94,0.00,,,0.00,,2013-01-19 13:13:00,
2013-01-19 08:22:00,38.0,36.0,30.29,WSW,242,3.0,24.0,94,0.00,,,0.00,,2013-01-19 13:22:00,
2013-01-19 08:34:00,38.0,36.0,30.29,WSW,242,3.0,24.0,94,0.00,,,0.00,,2013-01-19 13:34:00,
2013-01-19 08:43:00,38.0,36.0,30.29,WSW,242,3.0,24.0,94,0.00,,,0.00,,2013-01-19 13:43:00,
2013-01-19 08:53:00,38.0,36.0,30.29,WSW,242,3.0,24.0,94,0.00,,,0.00,,2013-01-19 13:53:00,
2013-01-19 09:23:00,41.0,39.0,30.29,SSW,210,1.0,28.0,92,0.00,,,0.00,,2013-01-19 14:23:00,
2013-01-19 09:34:00,41.0,39.0,30.29,SSW,210,1.0,28.0,92,0.00,,,0.00,,2013-01-19 14:34:00,
2013-01-19 09:43:00,41.0,39.0,30.29,SSW,210,1.0,28.0,92,0.00,,,0.00,,2013-01-19 14:43:00,
2013-01-19 09:53:00,41.0,39.0,30.29,SSW,210,1.0,28.0,92,0.00,,,0.00,,2013-01-19 14:53:00,
2013-01-19 10:23:00,42.0,39.0,30.29,WSW,242,7.0,28.0,88,0.00,,,0.00,,2013-01-19 15:23:00,
2013-01-19 10:33:00,42.0,39.0,30.29,WSW,242,7.0,28.0,88,0.00,,,0.00,,2013-01-19 15:33:00,
2013-01-19 10:43:00,42.0,39.0,30.29,WSW,242,7.0,28.0,88,0.00,,,0.00,,2013-01-19 15:43:00,
2013-01-19 10:53:00,43.0,39.0,30.27,SW,225,5.0,28.0,86,0.00,,,0.00,,2013-01-19 15:53:00,
2013-01-19 11:03:00,43.0,39.0,30.27,SW,225,5.0,28.0,86,0.00,,,0.00,,2013-01-19 16:03:00,
2013-01-19 11:13:00,43.0,39.0,30.27,SW,225,5.0,28.0,86,0.00,,,0.00,,2013-01-19 16:13:00,
2013-01-19 11:23:00,44.0,39.0,30.25,SW,231,7.0,28.0,82,0.00,,,0.00,,2013-01-19 16:23:00,
2013-01-19 11:33:00,44.0,39.0,30.25,SW,231,7.0,28.0,82,0.00,,,0.00,,2013-01-19 16:33:00,
2013-01-19 11:43:00,44.0,39.0,30.25,SW,231,7.0,28.0,82,0.00,,,0.00,,2013-01-19 16:43:00,
2013-01-19 11:54:00,45.0,39.0,30.22,SW,225,9.0,28.0,79,0.00,,,0.00,,2013-01-19 16:54:00,
2013-01-19 12:03:00,45.0,39.0,30.22,SW,225,9.0,28.0,79,0.00,,,0.00,,2013-01-19 17:03:00,
2013-01-19 12:29:00,45.0,38.0,30.19,SW,231,7.0,28.0,77,0.00,,,0.00,,2013-01-19 17:29:00,
2013-01-19 12:37:00,45.0,38.0,30.19,SW,231,7.0,28.0,77,0.00,,,0.00,,2013-01-19 17:37:00,
2013-01-19 12:49:00,45.0,38.0,30.19,SW,231,7.0,28.0,77,0.00,,,0.00,,2013-01-19 17:49:00,
2013-01-19 13:13:00,46.0,39.0,30.18,West,261,8.0,28.0,75,0.00,,,0.00,,2013-01-19 18:13:00,
2013-01-19 14:04:00,46.0,39.0,30.14,WSW,240,9.0,28.0,77,0.00,,,0.00,,2013-01-19 19:04:00,
2013-01-19 14:10:00,46.0,39.0,30.14,WSW,240,9.0,28.0,77,0.00,,,0.00,,2013-01-19 19:10:00,
2013-01-19 14:30:00,46.0,40.0,30.13,SW,236,8.0,29.0,78,0.00,,,0.00,,2013-01-19 19:30:00,
2013-01-19 14:40:00,46.0,40.0,30.13,SW,236,8.0,29.0,78,0.00,,,0.00,,2013-01-19 19:40:00,
2013-01-19 14:48:00,46.0,40.0,30.13,SW,236,8.0,29.0,78,0.00,,,0.00,,2013-01-19 19:48:00,
2013-01-19 14:54:00,46.0,40.0,30.12,SW,233,8.0,29.0,79,0.00,,,0.00,,2013-01-19 19:54:00,
2013-01-19 15:12:00,46.0,40.0,30.12,SW,233,8.0,29.0,79,0.00,,,0.00,,2013-01-19 20:12:00,
2013-01-19 15:20:00,46.0,40.0,30.12,SW,233,8.0,29.0,79,0.00,,,0.00,,2013-01-19 20:20:00,
2013-01-19 16:09:00,45.0,40.0,30.11,SW,235,6.0,29.0,82,0.00,,,0.00,,2013-01-19 21:09:00,
2013-01-19 16:15:00,45.0,40.0,30.11,SW,235,6.0,29.0,82,0.00,,,0.00,,2013-01-19 21:15:00,
2013-01-19 16:27:00,44.0,39.0,30.11,SW,229,7.0,29.0,84,0.00,,,0.00,,2013-01-19 21:27:00,
2013-01-19 16:46:00,44.0,39.0,30.11,SW,229,7.0,29.0,84,0.00,,,0.00,,2013-01-19 21:46:00,
2013-01-19 16:52:00,44.0,39.0,30.11,SW,229,7.0,29.0,84,0.00,,,0.00,,2013-01-19 21:52:00,
2013-01-19 16:57:00,44.0,41.0,30.10,WSW,250,4.0,29.0,88,0.00,,,0.00,,2013-01-19 21:57:00,
2013-01-19 17:16:00,44.0,41.0,30.10,WSW,250,4.0,29.0,88,0.00,,,0.00,,2013-01-19 22:16:00,
2013-01-19 17:27:00,43.0,40.0,30.09,SW,233,3.0,29.0,90,0.00,,,0.00,,2013-01-19 22:27:00,
2013-01-19 17:35:00,43.0,40.0,30.09,SW,233,3.0,29.0,90,0.00,,,0.00,,2013-01-19 22:35:00,
2013-01-19 17:48:00,43.0,40.0,30.09,SW,233,3.0,29.0,90,0.00,,,0.00,,2013-01-19 22:48:00,
2013-01-19 17:55:00,43.0,40.0,30.09,SW,233,3.0,29.0,90,0.00,,,0.00,,2013-01-19 22:55:00,
2013-01-19 17:58:00,43.0,41.0,30.09,SW,228,5.0,29.0,94,0.00,,,0.00,,2013-01-19 22:58:00,
2013-01-19 18:28:00,43.0,41.0,30.09,SW,228,5.0,29.0,94,0.00,,,0.00,,2013-01-19 23:28:00,
2013-01-19 18:35:00,43.0,41.0,30.09,SW,228,5.0,29.0,94,0.00,,,0.00,,2013-01-19 23:35:00,
2013-01-19 18:47:00,43.0,41.0,30.09,SW,228,5.0,29.0,94,0.00,,,0.00,,2013-01-19 23:47:00,
2013-01-19 19:26:00,42.0,41.0,30.09,WSW,249,3.0,29.0,96,0.00,,,0.00,,2013-01-20 00:26:00,
2013-01-19 19:47:00,42.0,41.0,30.09,WSW,249,3.0,29.0,96,0.00,,,0.00,,2013-01-20 00:47:00,
2013-01-19 19:54:00,42.0,41.0,30.09,SSW,195,1.0,29.0,96,0.00,,,0.00,,2013-01-20 00:54:00,
2013-01-19 20:05:00,42.0,41.0,30.09,SSW,195,1.0,29.0,96,0.00,,,0.00,,2013-01-20 01:05:00,
2013-01-19 20:22:00,42.0,41.0,30.09,SSW,195,1.0,29.0,96,0.00,,,0.00,,2013-01-20 01:22:00,
2013-01-19 20:27:00,42.0,41.0,30.07,WSW,253,4.0,29.0,97,0.00,,,0.00,,2013-01-20 01:27:00,
2013-01-19 20:38:00,42.0,41.0,30.07,WSW,253,4.0,29.0,97,0.00,,,0.00,,2013-01-20 01:38:00,
2013-01-19 20:49:00,42.0,41.0,30.07,WSW,253,4.0,29.0,97,0.00,,,0.00,,2013-01-20 01:49:00,
2013-01-19 20:58:00,42.0,41.0,30.06,WSW,251,1.0,29.0,97,0.00,,,0.00,,2013-01-20 01:58:00,
2013-01-19 21:15:00,42.0,41.0,30.06,WSW,251,1.0,29.0,97,0.00,,,0.00,,2013-01-20 02:15:00,
2013-01-19 21:27:00,42.0,41.0,30.06,SW,214,2.0,29.0,98,0.00,,,0.00,,2013-01-20 02:27:00,
2013-01-19 21:37:00,42.0,41.0,30.06,SW,214,2.0,29.0,98,0.00,,,0.00,,2013-01-20 02:37:00,
2013-01-19 21:45:00,42.0,41.0,30.06,SW,214,2.0,29.0,98,0.00,,,0.00,,2013-01-20 02:45:00,
2013-01-19 21:56:00,42.0,41.0,30.05,SW,224,4.0,29.0,98,0.00,,,0.00,,2013-01-20 02:56:00,
2013-01-19 22:09:00,42.0,41.0,30.05,SW,224,4.0,29.0,98,0.00,,,0.00,,2013-01-20 03:09:00,
2013-01-19 22:15:00,42.0,41.0,30.05,SW,224,4.0,29.0,98,0.00,,,0.00,,2013-01-20 03:15:00,
2013-01-19 22:25:00,42.0,42.0,30.04,WSW,240,0.0,29.0,99,0.00,,,0.00,,2013-01-20 03:25:00,
2013-01-19 22:39:00,42.0,42.0,30.04,WSW,240,0.0,29.0,99,0.00,,,0.00,,2013-01-20 03:39:00,
2013-01-19 22:45:00,42.0,42.0,30.04,WSW,240,0.0,29.0,99,0.00,,,0.00,,2013-01-20 03:45:00,
2013-01-19 22:54:00,42.0,42.0,30.03,SW,215,2.0,29.0,99,0.00,,,0.00,,2013-01-20 03:54:00,
2013-01-19 23:05:00,42.0,42.0,30.03,SW,215,2.0,29.0,99,0.00,,,0.00,,2013-01-20 04:05:00,
2013-01-19 23:15:00,42.0,42.0,30.03,SW,215,2.0,29.0,99,0.00,,,0.00,,2013-01-20 04:15:00,
2013-01-19 23:37:00,42.0,42.0,30.01,SW,233,0.0,29.0,99,0.00,,,0.00,,2013-01-20 04:37:00,
2013-01-19 23:45:00,42.0,42.0,30.01,SW,233,0.0,29.0,99,0.00,,,0.00,,2013-01-20 04:45:00,
2013-01-19 23:54:00,43.0,42.0,30.00,WSW,239,4.0,29.0,96,0.00,,,0.00,,2013-01-20 04:54:00,